createdAt,value
2023-03-29T00:02:11.220Z,4.63
2023-03-29T00:04:39.027Z,4.83
2023-03-29T00:07:05.911Z,5.27
2023-03-29T00:09:33.573Z,5.57
2023-03-29T00:12:01.397Z,4.80
2023-03-29T00:14:30.465Z,4.73
2023-03-29T00:16:58.020Z,3.40
2023-03-29T00:19:24.766Z,4.20
2023-03-29T00:21:51.437Z,5.47
2023-03-29T00:24:18.059Z,4.30
2023-03-29T00:26:44.701Z,4.23
2023-03-29T00:29:11.496Z,4.50
2023-03-29T00:31:38.276Z,4.10
2023-03-29T00:34:05.047Z,4.10
2023-03-29T00:36:31.715Z,4.03
2023-03-29T00:38:58.418Z,4.23
2023-03-29T00:41:26.001Z,4.53
2023-03-29T00:43:59.368Z,4.00
2023-03-29T00:46:28.198Z,4.47
2023-03-29T00:49:03.834Z,4.37
2023-03-29T00:51:34.775Z,4.60
2023-03-29T00:54:04.889Z,4.53
2023-03-29T00:56:37.165Z,3.80
2023-03-29T00:59:10.027Z,4.33
2023-03-29T01:01:45.294Z,4.43
2023-03-29T01:04:18.502Z,3.80
2023-03-29T01:06:57.325Z,4.03
2023-03-29T01:09:27.175Z,4.47
2023-03-29T01:12:01.084Z,3.83
2023-03-29T01:14:37.678Z,4.63
2023-03-29T01:17:04.681Z,5.50
2023-03-29T01:19:59.611Z,4.83
2023-03-29T01:22:51.405Z,4.10
2023-03-29T01:25:37.377Z,4.53
2023-03-29T01:28:10.134Z,4.43
2023-03-29T01:30:43.711Z,4.17
2023-03-29T01:33:14.712Z,3.50
2023-03-29T01:35:45.677Z,3.53
2023-03-29T01:38:27.853Z,3.50
2023-03-29T01:40:54.580Z,3.20
2023-03-29T01:43:24.014Z,3.73
2023-03-29T01:45:53.674Z,3.17
2023-03-29T01:48:29.237Z,3.30
2023-03-29T01:51:04.375Z,3.20
2023-03-29T01:53:51.524Z,3.50
2023-03-29T01:56:22.948Z,3.53
2023-03-29T01:58:53.887Z,3.20
